Latest Weather Observations for Laverton

IDV60901

Issued at 11:15 pm EST Tuesday 22 July 2014 (issued every 10 minutes, with the page automatically refreshed every 10 minutes)

About weather observations | Map of Melbourne area stations | Latest observations for Melbourne area | Other Formats
Station Details ID: 087031 Name: LAVERTON RAAF Lat: -37.86 Lon: 144.76 Height: 20.1 m
Data from the previous 72 hours. | See also: Recent months at Laverton
Date/Time
EST
Tmp

°C
App
Tmp
°C
Dew
Point
°C
Rel
Hum
%
Delta-T

°C
Wind Press
QNH
hPa
Press
MSL
hPa
Rain
since
9 am
mm
Dir
 
Spd
km/h
Gust
km/h
Spd
kts
Gust
kts
22/11:03pm 2.8 -0.5 2.5 98 0.1 NNW 9 11 5 6 1025.3 - 0.0
22/11:00pm 2.7 -0.6 2.4 98 0.1 NNW 9 11 5 6 1025.3 - 0.0
22/10:30pm 2.9 1.3 2.5 97 0.2 CALM 0 0 0 0 1025.4 - 0.0
22/10:00pm 3.1 0.4 2.7 97 0.2 N 6 7 3 4 1025.6 - 0.0
22/09:38pm 3.2 0.3 2.6 96 0.2 N 7 11 4 6 1025.6 - 0.0
22/09:30pm 3.4 0.2 2.8 96 0.2 NNE 9 13 5 7 1025.5 - 0.0
22/09:11pm 3.7 0.9 3.1 96 0.2 NNE 7 9 4 5 1025.4 - 0.0
22/09:00pm 3.8 0.6 3.2 96 0.2 N 9 13 5 7 1025.3 1025.4 0.0
22/08:30pm 3.4 0.5 2.7 95 0.3 N 7 9 4 5 1025.1 - 0.0
22/08:07pm 3.8 0.6 3.1 95 0.3 NNW 9 11 5 6 1024.9 - 0.0
22/08:00pm 4.0 0.8 3.1 94 0.4 NNW 9 11 5 6 1024.9 - 0.0
22/07:30pm 5.0 2.0 4.0 93 0.4 NNW 9 9 5 5 1024.9 - 0.0
22/07:00pm 6.0 4.8 4.6 91 0.6 CALM 0 0 0 0 1024.7 - 0.0
22/06:30pm 6.7 5.6 5.2 90 0.7 CALM 0 0 0 0 1024.6 - 0.0
22/06:00pm 6.7 5.6 4.9 88 0.8 CALM 0 0 0 0 1024.5 1024.6 0.0
22/05:30pm 7.7 5.3 5.3 85 1.1 NNW 7 11 4 6 1024.5 - 0.0
22/05:07pm 8.8 6.1 5.7 81 1.4 NNW 9 13 5 7 1024.5 - 0.0
22/05:00pm 9.1 7.0 5.8 80 1.5 E 6 11 3 6 1024.5 - 0.0
22/04:30pm 9.7 7.7 6.2 79 1.6 ESE 6 7 3 4 1024.4 - 0.0
22/04:00pm 9.8 7.6 6.0 77 1.8 ESE 7 9 4 5 1024.5 - 0.0
22/03:30pm 10.7 8.8 6.6 76 1.9 E 6 9 3 5 1024.7 - 0.0
22/03:00pm 10.7 8.6 6.8 77 1.8 E 7 9 4 5 1024.7 1024.8 0.0
22/02:30pm 10.1 8.1 6.4 78 1.7 S 6 9 3 5 1024.8 - 0.0
22/02:21pm 10.5 9.7 6.6 77 1.8 CALM 0 0 0 0 1024.9 - 0.0
22/02:00pm 10.6 8.7 6.7 77 1.8 W 6 7 3 4 1025.1 - 0.0
22/01:58pm 10.7 8.8 6.8 77 1.8 W 6 7 3 4 1025.1 - 0.0
22/01:54pm 10.5 8.6 6.8 78 1.7 W 6 7 3 4 1025.2 - 0.0
22/01:52pm 10.4 8.5 6.7 78 1.7 W 6 7 3 4 1025.2 - 0.0
22/01:30pm 10.3 8.5 7.2 81 1.5 WSW 6 9 3 5 1025.4 - 0.0
22/01:00pm 9.4 7.6 7.2 86 1.0 WNW 6 11 3 6 1025.8 - 0.0
22/12:30pm 8.5 5.7 7.1 91 0.7 WNW 11 15 6 8 1026.4 - 0.0
22/12:00pm 8.1 5.3 7.0 93 0.5 NW 11 13 6 7 1026.6 1026.7 0.0
22/11:30am 7.8 5.4 7.1 95 0.3 NW 9 11 5 6 1026.8 - 0.0
22/11:00am 7.8 5.9 7.4 97 0.2 WNW 7 11 4 6 1027.2 - 0.0
22/10:30am 7.5 5.7 7.2 98 0.1 NW 6 7 3 4 1027.2 - 0.0
22/10:00am 7.4 5.1 7.3 99 0.0 NW 9 11 5 6 1027.0 - 0.0
22/09:30am 6.9 4.5 6.8 99 0.0 NW 9 13 5 7 1027.0 - 0.0
22/09:00am 7.0 5.0 6.9 99 0.0 WSW 7 9 4 5 1026.7 1026.8 0.0
22/08:30am 6.9 5.0 6.8 99 0.0 SW 6 9 3 5 1026.6 - 0.0
22/08:00am 6.7 4.8 6.6 99 0.0 NW 6 7 3 4 1026.3 - 0.0
22/07:30am 6.6 4.5 6.5 99 0.0 NW 7 9 4 5 1026.2 - 0.0
22/07:00am 6.5 4.5 6.4 99 0.0 NW 6 9 3 5 1025.9 - 0.0
22/06:30am 6.6 4.5 6.5 99 0.0 NNW 7 9 4 5 1025.5 - 0.0
22/06:00am 5.8 4.8 5.7 99 0.0 NNW 0 0 0 0 1025.3 1025.4 0.0
22/05:30am 5.6 4.6 5.5 99 0.0 CALM 0 0 0 0 1025.2 - 0.0
22/05:00am 5.4 4.3 5.3 99 0.0 CALM 0 0 0 0 1025.2 - 0.0
22/04:30am 5.2 4.1 5.1 99 0.0 CALM 0 4 0 2 1025.0 - 0.0
22/04:00am 4.7 2.4 4.6 99 0.0 NNW 6 7 3 4 1024.8 - 0.0
22/03:30am 3.8 1.1 3.7 99 0.0 NNW 7 9 4 5 1024.8 - 0.0
22/03:00am 4.6 1.7 4.5 99 0.0 NW 9 17 5 9 1024.8 1024.9 0.0
22/02:30am 4.8 2.3 4.7 99 0.0 W 7 9 4 5 1025.0 - 0.0
22/02:00am 5.4 3.0 5.3 99 0.0 W 7 9 4 5 1025.2 - 0.0
22/01:30am 5.1 2.3 5.0 99 0.0 W 9 11 5 6 1025.2 - 0.0
22/01:00am 3.5 0.4 3.4 99 0.0 WSW 9 11 5 6 1025.3 - 0.0
22/12:30am 2.4 -0.9 2.3 99 0.0 WSW 9 9 5 5 1025.4 - 0.0
22/12:27am 2.1 -1.3 2.0 99 0.0 WSW 9 11 5 6 1025.4 - 0.0
22/12:00am 3.0 0.2 2.9 99 0.0 WSW 7 9 4 5 1025.5 1025.6 0.0
 
Date/Time
EST
Tmp

°C
App
Tmp
°C
Dew
Point
°C
Rel
Hum
%
Delta-T

°C
Wind Press
QNH
hPa
Press
MSL
hPa
Rain
since
9 am
mm
Dir
 
Spd
km/h
Gust
km/h
Spd
kts
Gust
kts
21/11:30pm 3.0 0.2 2.9 99 0.0 WSW 7 9 4 5 1025.6 - 0.0
21/11:00pm 3.2 0.0 3.1 99 0.0 WSW 9 13 5 7 1025.5 - 0.0
21/10:30pm 2.9 -0.8 2.6 98 0.1 WSW 11 11 6 6 1025.5 - 0.0
21/10:00pm 3.0 -1.0 2.7 98 0.1 WSW 13 13 7 7 1025.4 - 0.0
21/09:30pm 3.2 -0.4 2.8 97 0.2 WSW 11 13 6 7 1025.3 - 0.0
21/09:00pm 4.4 1.4 4.0 97 0.2 WSW 9 11 5 6 1025.3 1025.4 0.0
21/08:30pm 4.5 1.1 3.9 96 0.3 WSW 11 13 6 7 1025.3 - 0.0
21/08:00pm 5.3 2.8 4.6 95 0.3 SW 7 11 4 6 1025.2 - 0.0
21/07:30pm 7.1 6.2 6.2 94 0.4 CALM 0 0 0 0 1025.1 - 0.0
21/07:00pm 7.5 6.7 6.4 93 0.5 CALM 0 0 0 0 1025.0 - 0.0
21/06:30pm 8.2 7.5 6.8 91 0.6 CALM 0 0 0 0 1024.9 - 0.0
21/06:00pm 8.8 7.4 7.3 90 0.7 SE 4 7 2 4 1024.7 1024.8 0.0
21/05:32pm 9.0 7.0 7.1 88 0.9 SE 7 9 4 5 1024.5 - 0.0
21/05:30pm 9.1 7.1 7.2 88 0.9 SE 7 9 4 5 1024.5 - 0.0
21/05:06pm 9.5 7.5 7.3 86 1.0 SE 7 11 4 6 1024.5 - 0.0
21/05:00pm 9.7 7.8 7.5 86 1.0 SE 7 9 4 5 1024.5 - 0.0
21/04:53pm 9.8 7.9 7.6 86 1.1 SE 7 11 4 6 1024.5 - 0.0
21/04:30pm 10.1 7.8 7.5 84 1.2 SSE 9 13 5 7 1024.5 - 0.0
21/04:00pm 10.6 8.4 7.7 82 1.4 SE 9 11 5 6 1024.4 - 0.0
21/03:30pm 11.0 8.7 7.5 79 1.7 SE 9 13 5 7 1024.4 - 0.0
21/03:00pm 11.4 9.2 7.9 79 1.7 SSE 9 9 5 5 1024.3 1024.4 0.0
21/02:30pm 11.1 8.9 8.0 81 1.5 SSE 9 13 5 7 1024.3 - 0.0
21/02:13pm 11.0 8.4 7.9 81 1.5 SSE 11 13 6 7 1024.3 - 0.0
21/02:00pm 11.1 8.9 7.8 80 1.6 SE 9 13 5 7 1024.4 - 0.0
21/01:36pm 11.2 9.4 7.9 80 1.6 SSE 7 13 4 7 1024.6 - 0.0
21/01:35pm 11.2 9.4 7.9 80 1.6 SSE 7 13 4 7 1024.6 - 0.0
21/01:30pm 11.2 9.5 7.7 79 1.7 SSE 6 9 3 5 1024.7 - 0.0
21/01:00pm 11.5 10.4 8.4 81 1.5 ENE 4 7 2 4 1025.0 - 0.0
21/12:56pm 11.2 10.0 8.1 81 1.5 ENE 4 7 2 4 1025.0 - 0.0
21/12:30pm 10.7 10.4 8.5 86 1.1 CALM 0 0 0 0 1025.4 - 0.0
21/12:24pm 10.6 10.3 8.5 87 1.0 CALM 0 0 0 0 1025.5 - 0.0
21/12:07pm 10.4 9.0 8.7 89 0.8 ENE 6 7 3 4 1025.7 - 0.0
21/12:06pm 10.4 9.4 8.7 89 0.8 ENE 4 7 2 4 1025.7 - 0.0
21/12:00pm 10.5 9.9 8.9 90 0.8 NE 2 7 1 4 1025.8 1025.9 0.0
21/11:30am 10.0 9.1 9.1 94 0.4 N 4 7 2 4 1026.2 - 0.0
21/11:00am 9.4 9.2 8.9 97 0.2 CALM 0 6 0 3 1026.6 - 0.0
21/10:30am 8.5 7.0 8.4 99 0.0 N 6 7 3 4 1026.7 - 0.0
21/10:00am 7.4 6.4 7.3 99 0.0 N 2 6 1 3 1026.7 - 0.0
21/09:30am 6.1 4.0 6.0 99 0.0 N 6 7 3 4 1026.6 - 0.0
21/09:00am 4.9 2.0 4.8 99 0.0 N 9 13 5 7 1026.6 1026.7 0.2
21/08:30am 3.6 1.1 3.5 99 0.0 N 6 7 3 4 1026.6 - 0.2
21/08:00am 3.5 0.9 3.4 99 0.0 N 6 7 3 4 1026.5 - 0.2
21/07:30am 3.1 0.5 3.0 99 0.0 N 6 7 3 4 1026.4 - 0.2
21/07:00am 3.2 1.7 3.1 99 0.0 CALM 0 7 0 4 1026.3 - 0.2
21/06:30am 3.2 0.6 3.1 99 0.0 N 6 6 3 3 1026.1 - 0.2
21/06:00am 3.8 1.3 3.7 99 0.0 N 6 9 3 5 1025.8 1025.9 0.2
21/05:30am 3.6 0.9 3.5 99 0.0 NW 7 9 4 5 1025.8 - 0.2
21/05:00am 3.4 0.8 3.3 99 0.0 NW 6 7 3 4 1025.9 - 0.2
21/04:30am 3.2 1.7 3.1 99 0.0 CALM 0 0 0 0 1025.9 - 0.2
21/04:00am 3.3 1.1 3.2 99 0.0 NNW 4 7 2 4 1026.0 - 0.2
21/03:30am 3.4 1.2 3.3 99 0.0 NNW 4 6 2 3 1026.3 - 0.2
21/03:00am 3.7 1.2 3.6 99 0.0 NNW 6 7 3 4 1026.3 1026.4 0.2
21/02:30am 3.5 0.7 3.4 99 0.0 NNW 7 9 4 5 1026.3 - 0.2
21/02:00am 3.3 0.5 3.0 98 0.1 NNW 7 9 4 5 1026.1 - 0.2
21/01:30am 3.7 0.9 3.4 98 0.1 NNW 7 9 4 5 1026.2 - 0.2
21/01:00am 4.1 1.4 3.8 98 0.1 NW 7 9 4 5 1026.2 - 0.2
21/12:30am 3.6 0.1 3.3 98 0.1 NW 11 13 6 7 1026.3 - 0.2
21/12:00am 3.6 0.8 3.3 98 0.1 NW 7 9 4 5 1026.4 1026.5 0.2
 
Date/Time
EST
Tmp

°C
App
Tmp
°C
Dew
Point
°C
Rel
Hum
%
Delta-T

°C
Wind Press
QNH
hPa
Press
MSL
hPa
Rain
since
9 am
mm
Dir
 
Spd
km/h
Gust
km/h
Spd
kts
Gust
kts
20/11:30pm 3.9 0.8 3.6 98 0.1 NW 9 11 5 6 1026.8 - 0.2
20/11:00pm 4.1 0.7 3.8 98 0.1 NW 11 13 6 7 1027.0 - 0.2
20/10:30pm 4.3 0.9 3.9 97 0.2 ESE 11 13 6 7 1027.0 - 0.2
20/10:00pm 4.8 1.9 4.4 97 0.2 ESE 9 11 5 6 1027.1 - 0.2
20/09:30pm 5.5 4.4 5.1 97 0.2 CALM 0 0 0 0 1026.9 - 0.2
20/09:00pm 5.7 3.3 5.3 97 0.2 ESE 7 7 4 4 1026.9 1027.0 0.2
20/08:30pm 6.5 4.4 5.9 96 0.3 ESE 6 7 3 4 1026.8 - 0.2
20/08:00pm 6.8 5.2 6.2 96 0.3 ESE 4 6 2 3 1026.9 - 0.2
20/07:30pm 6.9 6.0 6.0 94 0.4 CALM 0 0 0 0 1027.0 - 0.2
20/07:00pm 7.9 7.2 7.0 94 0.4 CALM 0 0 0 0 1026.9 - 0.2
20/06:30pm 8.0 6.5 6.8 92 0.6 ESE 4 7 2 4 1026.9 - 0.2
20/06:00pm 8.9 7.0 7.4 90 0.7 ESE 7 7 4 4 1026.6 1026.7 0.2
20/05:58pm 8.9 7.0 7.4 90 0.7 ESE 7 7 4 4 1026.6 - 0.2
20/05:30pm 9.6 8.3 7.7 88 0.9 ESE 4 7 2 4 1026.7 - 0.2
20/05:00pm 10.7 10.4 8.6 87 1.0 CALM 0 0 0 0 1026.6 - 0.2
20/04:30pm 10.8 10.2 9.1 89 0.8 ESE 2 6 1 3 1026.6 - 0.2
20/04:00pm 10.4 9.3 8.5 88 0.9 ESE 4 6 2 3 1026.7 - 0.2
20/03:30pm 10.8 9.3 8.6 86 1.1 ESE 6 9 3 5 1026.7 - 0.2
20/03:00pm 11.1 9.7 8.7 85 1.2 SSE 6 9 3 5 1026.7 1026.8 0.2
20/02:30pm 11.2 9.2 8.6 84 1.3 SSE 9 11 5 6 1026.7 - 0.0
20/02:00pm 11.1 9.1 8.7 85 1.2 SSE 9 13 5 7 1026.9 - 0.0
20/01:30pm 11.0 8.9 8.4 84 1.3 SE 9 13 5 7 1027.0 - 0.0
20/01:22pm 11.1 8.6 8.3 83 1.4 SE 11 13 6 7 1027.1 - 0.0
20/01:03pm 12.0 10.0 8.5 79 1.7 SE 9 17 5 9 1027.4 - 0.0
20/01:00pm 12.6 11.0 8.9 78 1.9 ESE 7 15 4 8 1027.4 - 0.0
20/12:30pm 12.3 11.7 9.0 80 1.7 SSE 2 7 1 4 1027.9 - 0.0
20/12:11pm 12.8 12.9 10.0 83 1.4 CALM 0 9 0 5 1028.2 - 0.0
20/12:00pm 11.3 9.9 9.0 86 1.1 SE 6 9 3 5 1028.4 1028.4 0.0
20/11:30am 10.8 9.4 8.9 88 0.9 SW 6 11 3 6 1028.7 - 0.0
20/11:18am 10.7 9.7 9.0 89 0.8 WSW 4 9 2 5 1028.8 - 0.0
20/11:00am 10.7 9.4 9.3 91 0.7 WSW 6 9 3 5 1028.9 - 0.0
20/10:30am 10.0 9.0 8.9 93 0.5 W 4 7 2 4 1029.1 - 0.0
20/10:00am 9.3 7.8 8.4 94 0.4 W 6 9 3 5 1029.0 - 0.0
20/09:30am 8.5 5.9 7.7 95 0.4 WNW 11 15 6 8 1028.8 - 0.0
20/09:00am 7.8 4.7 7.1 95 0.3 NW 13 15 7 8 1028.7 1028.7 0.0
20/08:30am 7.2 4.3 6.5 95 0.3 NW 11 13 6 7 1028.5 - 0.0
20/08:24am 7.1 4.2 6.4 95 0.3 NW 11 15 6 8 1028.5 - 0.0
20/08:00am 6.7 4.1 6.0 95 0.3 WNW 9 13 5 7 1028.5 - 0.0
20/07:54am 6.6 3.6 5.9 95 0.3 WNW 11 11 6 6 1028.6 - 0.0
20/07:35am 6.4 3.3 5.7 95 0.3 NW 11 13 6 7 1028.5 - 0.0
20/07:30am 6.3 3.2 5.6 95 0.3 NW 11 13 6 7 1028.5 - 0.0
20/07:08am 6.5 4.2 5.6 94 0.4 WNW 7 11 4 6 1028.4 - 0.0
20/07:00am 6.4 4.1 5.5 94 0.4 WNW 7 7 4 4 1028.4 - 0.0
20/06:37am 6.7 4.0 5.8 94 0.4 WNW 9 11 5 6 1028.4 - 0.0
20/06:30am 6.8 4.2 5.9 94 0.4 WNW 9 11 5 6 1028.3 - 0.0
20/06:00am 6.7 4.0 5.8 94 0.4 WNW 9 11 5 6 1028.2 1028.2 0.0
20/05:30am 6.8 4.1 5.7 93 0.5 W 9 13 5 7 1028.1 - 0.0
20/05:05am 6.6 4.5 5.6 93 0.4 WSW 6 7 3 4 1028.1 - 0.0
20/05:00am 6.6 4.5 5.6 93 0.4 SW 6 9 3 5 1028.1 - 0.0
20/04:30am 6.4 4.0 5.4 93 0.4 WSW 7 9 4 5 1027.9 - 0.0
20/04:20am 6.3 3.9 5.4 94 0.4 W 7 11 4 6 1027.9 - 0.0
20/04:00am 6.2 3.0 5.2 93 0.4 W 11 15 6 8 1027.9 - 0.0
20/03:38am 6.2 2.6 4.8 91 0.6 W 13 19 7 10 1028.1 - 0.0
20/03:30am 6.3 2.7 4.8 90 0.7 W 13 19 7 10 1028.2 - 0.0
20/03:28am 6.3 2.7 4.8 90 0.7 W 13 19 7 10 1028.2 - 0.0
20/03:00am 7.0 4.2 5.2 88 0.8 W 9 13 5 7 1028.3 1028.3 0.0
20/02:53am 7.0 4.2 5.2 88 0.8 W 9 11 5 6 1028.4 - 0.0
20/02:30am 6.7 4.4 4.7 87 0.9 W 6 7 3 4 1028.5 - 0.0
20/02:00am 6.6 4.1 4.6 87 0.9 W 7 7 4 4 1028.5 - 0.0
20/01:30am 6.6 4.0 4.1 84 1.1 W 7 9 4 5 1028.7 - 0.0
20/01:00am 7.2 4.3 4.7 84 1.1 W 9 11 5 6 1029.0 - 0.0
20/12:30am 7.2 5.0 5.2 87 0.9 W 6 9 3 5 1029.2 - 0.0
20/12:00am 6.9 4.7 5.1 88 0.8 W 6 7 3 4 1029.3 1029.3 0.0
 
Date/Time
EST
Tmp

°C
App
Tmp
°C
Dew
Point
°C
Rel
Hum
%
Delta-T

°C
Wind Press
QNH
hPa
Press
MSL
hPa
Rain
since
9 am
mm
Dir
 
Spd
km/h
Gust
km/h
Spd
kts
Gust
kts
19/11:30pm 7.0 4.5 5.0 87 0.9 W 7 9 4 5 1029.3 - 0.0

Latest Capital City Observations: Canberra | Sydney | Melbourne | Brisbane | Adelaide | Perth | Hobart | Darwin

Other Formats:

Comma delimited format used in spreadsheet applications
http://www.bom.gov.au/fwo/IDV60901/IDV60901.94865.axf

JavaScript Object Notation format (JSON) in row-major order
http://www.bom.gov.au/fwo/IDV60901/IDV60901.94865.json